Time;durP1;ratioP1;P1;durP2;ratioP2;P2;SDS_P1;SDS_P2;PMS_P1;PMS_P2;Temp;Humidity;BMP_temperature;BMP_pressure;BME280_temperature;BME280_humidity;BME280_pressure;Samples;Min_cycle;Max_cycle;Signal;HPM_P1;HPM_P2
2023/03/27 00:00:31;;;;;;;2.20;1.63;;;8.90;61.40;;;;;;5030992;28;20249;-76
2023/03/27 00:02:57;;;;;;;2.00;1.30;;;8.60;64.80;;;;;;5036172;28;20181;-77
2023/03/27 00:05:23;;;;;;;1.90;1.20;;;8.70;63.20;;;;;;5050425;28;20282;-77
2023/03/27 00:07:56;;;;;;;2.10;1.38;;;8.40;66.10;;;;;;5034243;28;20186;-77
2023/03/27 00:10:23;;;;;;;2.00;1.20;;;8.40;67.40;;;;;;5034010;28;20204;-77
2023/03/27 00:12:49;;;;;;;2.10;1.40;;;8.60;66.80;;;;;;5032312;28;20211;-76
2023/03/27 00:15:18;;;;;;;2.00;1.25;;;9.20;62.40;;;;;;5038290;28;20659;-77
2023/03/27 00:17:48;;;;;;;2.05;1.20;;;9.40;60.70;;;;;;5034767;28;20646;-76
2023/03/27 00:20:16;;;;;;;2.00;1.20;;;9.40;58.00;;;;;;5034722;28;20211;-77
2023/03/27 00:22:42;;;;;;;2.10;1.40;;;9.40;58.10;;;;;;5034439;28;20195;-76
2023/03/27 00:25:09;;;;;;;2.00;1.30;;;9.20;58.80;;;;;;5021241;28;20195;-78
2023/03/27 00:27:36;;;;;;;2.00;1.25;;;9.00;64.50;;;;;;5050903;28;20544;-76
2023/03/27 00:30:03;;;;;;;2.00;1.23;;;8.70;66.00;;;;;;5034509;28;20213;-77
2023/03/27 00:32:29;;;;;;;1.95;1.20;;;8.80;63.90;;;;;;5034476;28;20165;-74
2023/03/27 00:34:55;;;;;;;2.20;1.40;;;9.00;61.80;;;;;;5032074;28;20180;-76
2023/03/27 00:37:21;;;;;;;2.00;1.20;;;8.60;63.90;;;;;;5042707;28;20936;-78
2023/03/27 00:39:49;;;;;;;2.10;1.30;;;8.80;63.90;;;;;;5040900;28;20200;-77
2023/03/27 00:42:21;;;;;;;2.00;1.20;;;8.70;64.50;;;;;;5034445;28;20171;-77
2023/03/27 00:44:48;;;;;;;2.20;1.50;;;8.70;65.70;;;;;;5033804;28;20552;-77
2023/03/27 00:47:15;;;;;;;2.22;1.40;;;8.80;63.10;;;;;;5040001;28;20165;-77
2023/03/27 00:49:41;;;;;;;2.10;1.30;;;8.60;66.40;;;;;;5042874;28;20618;-77
2023/03/27 00:52:07;;;;;;;1.97;1.23;;;8.70;64.80;;;;;;5042888;28;20175;-76
2023/03/27 00:54:38;;;;;;;2.00;1.30;;;8.40;68.30;;;;;;5047137;28;20430;-75
2023/03/27 00:57:08;;;;;;;1.90;1.20;;;8.50;68.60;;;;;;5057360;28;20394;-77
2023/03/27 00:59:38;;;;;;;1.90;1.15;;;8.70;67.70;;;;;;5056299;28;20187;-76
2023/03/27 01:02:06;;;;;;;2.10;1.30;;;8.10;71.90;;;;;;5035457;28;20185;-76
2023/03/27 01:04:34;;;;;;;2.03;1.20;;;8.20;73.30;;;;;;5039637;28;20192;-76
2023/03/27 01:07:02;;;;;;;2.00;1.20;;;8.30;74.00;;;;;;5053173;28;20198;-77
2023/03/27 01:09:28;;;;;;;2.08;1.20;;;8.40;68.20;;;;;;5047153;28;20182;-77
2023/03/27 01:11:57;;;;;;;2.00;1.20;;;8.10;71.20;;;;;;5047226;28;20171;-76
2023/03/27 01:14:46;;;;;;;2.00;1.20;;;7.70;76.30;;;;;;5028567;28;20436;-77
2023/03/27 01:17:36;;;;;;;2.00;1.30;;;7.60;75.30;;;;;;5037778;28;20173;-76
2023/03/27 01:20:31;;;;;;;2.10;1.20;;;7.40;75.90;;;;;;5021680;28;20574;-76
2023/03/27 01:23:18;;;;;;;2.20;1.38;;;7.20;80.40;;;;;;5031595;28;20167;-77
2023/03/27 01:25:56;;;;;;;2.10;1.20;;;7.60;76.30;;;;;;5043519;28;20199;-76
2023/03/27 01:28:34;;;;;;;2.00;1.20;;;7.80;75.60;;;;;;5053289;28;20170;-76
2023/03/27 01:31:32;;;;;;;2.10;1.27;;;7.60;75.30;;;;;;5053231;28;20691;-77
2023/03/27 01:34:19;;;;;;;2.10;1.30;;;7.60;75.00;;;;;;5044625;28;20183;-76
2023/03/27 01:37:05;;;;;;;2.33;1.52;;;7.60;78.90;;;;;;5042427;28;20238;-76
2023/03/27 01:40:03;;;;;;;2.10;1.20;;;7.40;77.50;;;;;;5049469;28;20204;-77
2023/03/27 01:42:53;;;;;;;2.15;1.30;;;7.40;78.10;;;;;;5041325;28;20257;-73
2023/03/27 01:45:38;;;;;;;2.00;1.20;;;7.60;74.10;;;;;;5043033;28;20609;-76
2023/03/27 01:48:38;;;;;;;2.10;1.30;;;7.90;72.10;;;;;;5031929;28;20226;-78
2023/03/27 01:51:17;;;;;;;2.00;1.10;;;7.50;76.90;;;;;;5037012;28;20661;-77
2023/03/27 01:53:55;;;;;;;2.00;1.30;;;7.60;75.00;;;;;;5026491;28;20172;-77
2023/03/27 01:56:31;;;;;;;2.72;1.80;;;7.80;76.30;;;;;;5034755;28;20179;-77
2023/03/27 01:59:07;;;;;;;2.15;1.35;;;7.60;75.70;;;;;;5036534;28;20579;-77
2023/03/27 02:01:38;;;;;;;2.10;1.20;;;7.60;77.50;;;;;;5041044;28;20219;-75
2023/03/27 02:04:07;;;;;;;2.83;1.60;;;7.80;73.90;;;;;;5032201;28;20185;-76
2023/03/27 02:06:42;;;;;;;2.42;1.63;;;7.60;75.50;;;;;;5048198;28;20247;-76
2023/03/27 02:09:14;;;;;;;2.00;1.15;;;7.80;74.00;;;;;;5031498;28;20176;-76
2023/03/27 02:11:51;;;;;;;2.10;1.20;;;7.50;77.40;;;;;;5048906;28;20226;-77
2023/03/27 02:14:21;;;;;;;2.40;1.52;;;6.80;76.10;;;;;;5032493;28;20167;-77
2023/03/27 02:16:53;;;;;;;2.10;1.20;;;7.10;79.30;;;;;;5036613;28;20667;-75
2023/03/27 02:19:29;;;;;;;2.13;1.27;;;7.10;77.10;;;;;;5039782;28;20184;-77
2023/03/27 02:21:54;;;;;;;2.20;1.20;;;7.00;74.90;;;;;;5046688;28;20183;-75
2023/03/27 02:24:21;;;;;;;2.13;1.30;;;6.80;72.20;;;;;;5031971;28;20230;-77
2023/03/27 02:26:52;;;;;;;2.08;1.20;;;6.60;77.00;;;;;;5043887;28;20180;-77
2023/03/27 02:29:44;;;;;;;2.20;1.23;;;6.90;73.60;;;;;;5041460;28;20178;-76
2023/03/27 02:32:22;;;;;;;2.15;1.20;;;6.80;77.50;;;;;;5048033;28;20539;-76
2023/03/27 02:35:07;;;;;;;2.20;1.20;;;6.70;76.70;;;;;;5011505;28;20260;-76
2023/03/27 02:38:00;;;;;;;2.15;1.20;;;7.10;71.50;;;;;;5017538;28;20166;-76
2023/03/27 02:40:29;;;;;;;2.20;1.30;;;7.00;73.40;;;;;;5028311;28;20211;-77
2023/03/27 02:42:59;;;;;;;2.30;1.30;;;6.80;74.80;;;;;;5030947;28;20257;-77
2023/03/27 02:45:32;;;;;;;2.20;1.30;;;6.60;69.60;;;;;;5031936;28;20570;-77
2023/03/27 02:48:08;;;;;;;2.22;1.27;;;6.50;71.10;;;;;;5031914;28;20184;-77
2023/03/27 02:50:44;;;;;;;2.30;1.30;;;6.50;71.70;;;;;;5036936;28;20202;-76
2023/03/27 02:53:12;;;;;;;2.30;1.30;;;6.60;68.50;;;;;;5031423;28;20218;-77
2023/03/27 02:55:43;;;;;;;2.70;1.60;;;6.20;70.00;;;;;;5031508;28;20176;-75
2023/03/27 02:58:13;;;;;;;2.30;1.25;;;6.40;70.80;;;;;;5038134;28;20230;-77
2023/03/27 03:00:47;;;;;;;2.35;1.30;;;6.50;68.00;;;;;;5033606;28;20220;-73
2023/03/27 03:03:29;;;;;;;2.30;1.30;;;6.20;70.20;;;;;;5033237;28;20240;-76
2023/03/27 03:05:55;;;;;;;2.40;1.30;;;6.30;69.60;;;;;;5023000;28;20185;-76
2023/03/27 03:08:21;;;;;;;2.22;1.30;;;6.60;66.60;;;;;;5021551;28;20244;-76
2023/03/27 03:10:47;;;;;;;2.40;1.40;;;6.50;66.10;;;;;;5032367;28;20227;-74
2023/03/27 03:13:16;;;;;;;2.33;1.23;;;6.20;69.90;;;;;;5028792;28;20854;-76
2023/03/27 03:15:44;;;;;;;2.50;1.40;;;6.10;69.90;;;;;;5027292;28;20184;-76
2023/03/27 03:18:11;;;;;;;2.40;1.30;;;6.00;68.90;;;;;;5029580;28;20206;-76
2023/03/27 03:20:38;;;;;;;2.95;1.42;;;6.00;71.80;;;;;;5031674;28;20200;-75
2023/03/27 03:23:04;;;;;;;2.30;1.20;;;6.10;69.20;;;;;;5026941;28;20208;-76
2023/03/27 03:25:30;;;;;;;2.30;1.30;;;6.00;68.50;;;;;;5030823;28;20235;-77
2023/03/27 03:27:59;;;;;;;2.37;1.30;;;5.90;70.30;;;;;;5031121;28;20177;-76
2023/03/27 03:30:29;;;;;;;2.30;1.20;;;6.10;67.50;;;;;;5039085;28;20496;-77
2023/03/27 03:32:55;;;;;;;2.40;1.35;;;6.00;71.00;;;;;;5030034;28;20214;-74
2023/03/27 03:35:23;;;;;;;2.40;1.20;;;6.20;68.80;;;;;;5030038;28;20237;-77
2023/03/27 03:37:50;;;;;;;2.38;1.20;;;6.40;67.90;;;;;;5038679;28;20180;-76
2023/03/27 03:40:17;;;;;;;2.45;1.30;;;6.40;59.80;;;;;;5042766;28;20204;-74
2023/03/27 03:42:47;;;;;;;2.50;1.40;;;6.40;62.20;;;;;;5043097;28;20327;-75
2023/03/27 03:45:14;;;;;;;2.55;1.42;;;6.00;58.30;;;;;;5034700;28;20209;-77
2023/03/27 03:47:40;;;;;;;2.42;1.20;;;6.00;57.50;;;;;;5035614;28;20307;-76
2023/03/27 03:50:06;;;;;;;2.50;1.30;;;6.00;57.50;;;;;;5034184;28;20714;-77
2023/03/27 03:52:31;;;;;;;2.50;1.27;;;6.00;56.50;;;;;;5042198;28;20180;-76
2023/03/27 03:54:57;;;;;;;2.60;1.40;;;5.70;54.20;;;;;;5033019;28;20666;-77
2023/03/27 03:57:23;;;;;;;2.37;1.20;;;5.80;55.00;;;;;;5034505;28;20283;-77
2023/03/27 03:59:48;;;;;;;2.50;1.30;;;6.40;50.40;;;;;;5034890;28;20208;-76
2023/03/27 04:02:27;;;;;;;2.40;1.20;;;6.20;50.70;;;;;;5042441;28;20186;-77
2023/03/27 04:04:53;;;;;;;2.50;1.30;;;6.70;49.70;;;;;;5041425;28;20160;-77
2023/03/27 04:07:22;;;;;;;3.00;1.42;;;6.80;49.00;;;;;;5032661;28;20199;-77
2023/03/27 04:09:49;;;;;;;2.58;1.30;;;7.10;46.70;;;;;;5049587;28;20203;-77
2023/03/27 04:12:15;;;;;;;2.42;1.17;;;6.70;44.30;;;;;;5043217;28;20180;-77
2023/03/27 04:14:42;;;;;;;2.40;1.20;;;6.80;46.80;;;;;;5014942;28;20608;-77
2023/03/27 04:17:08;;;;;;;2.50;1.30;;;6.60;45.80;;;;;;5024484;28;20209;-76
2023/03/27 04:19:34;;;;;;;2.40;1.13;;;6.50;45.60;;;;;;5034070;28;20188;-77
2023/03/27 04:22:03;;;;;;;2.40;1.30;;;6.60;44.80;;;;;;5033756;28;20246;-77
2023/03/27 04:24:31;;;;;;;2.42;1.20;;;6.30;46.30;;;;;;5042283;28;20265;-76
2023/03/27 04:26:59;;;;;;;2.40;1.20;;;6.00;44.70;;;;;;5041018;28;20204;-76
2023/03/27 04:29:29;;;;;;;2.40;1.20;;;6.20;44.40;;;;;;5033772;28;20181;-77
2023/03/27 04:31:57;;;;;;;2.50;1.30;;;6.90;43.70;;;;;;5040886;28;20231;-77
2023/03/27 04:34:24;;;;;;;2.40;1.20;;;7.30;40.20;;;;;;5043424;28;20204;-76
2023/03/27 04:36:49;;;;;;;2.40;1.10;;;6.70;40.20;;;;;;5054815;28;20669;-76
2023/03/27 04:39:16;;;;;;;2.40;1.20;;;6.30;39.70;;;;;;5033507;28;20215;-77
2023/03/27 04:41:48;;;;;;;4.55;2.15;;;6.30;42.80;;;;;;5026634;28;20415;-76
2023/03/27 04:44:17;;;;;;;2.50;1.33;;;6.20;41.10;;;;;;5038333;28;20183;-76
2023/03/27 04:46:50;;;;;;;2.40;1.20;;;5.90;42.30;;;;;;5034551;28;20578;-76
2023/03/27 04:49:19;;;;;;;2.30;1.15;;;5.60;44.10;;;;;;5032053;28;20172;-75
2023/03/27 04:51:45;;;;;;;2.70;1.40;;;5.70;44.30;;;;;;5045715;28;20222;-76
2023/03/27 04:54:11;;;;;;;2.50;1.25;;;5.70;44.70;;;;;;5026588;28;20268;-76
2023/03/27 04:56:36;;;;;;;2.40;1.10;;;5.30;45.50;;;;;;5047487;28;20268;-77
2023/03/27 04:59:02;;;;;;;2.40;1.20;;;5.20;46.50;;;;;;5040864;28;20654;-76
2023/03/27 05:01:29;;;;;;;2.80;1.60;;;5.00;47.90;;;;;;5032033;28;20287;-74
2023/03/27 05:03:55;;;;;;;2.60;1.38;;;5.40;46.70;;;;;;5032831;28;20468;-76
2023/03/27 05:06:21;;;;;;;2.50;1.20;;;5.80;45.00;;;;;;5043330;28;20573;-77
2023/03/27 05:08:47;;;;;;;2.42;1.17;;;5.90;46.30;;;;;;5055370;28;20526;-77
2023/03/27 05:11:12;;;;;;;2.50;1.23;;;6.00;46.10;;;;;;5047534;28;20247;-76
2023/03/27 05:13:38;;;;;;;2.70;1.30;;;6.30;44.90;;;;;;5038842;28;20225;-76
2023/03/27 05:16:05;;;;;;;2.40;1.20;;;6.70;43.40;;;;;;5044313;28;20188;-76
2023/03/27 05:18:30;;;;;;;2.50;1.20;;;6.50;43.30;;;;;;5040575;28;20247;-77
2023/03/27 05:20:59;;;;;;;2.40;1.10;;;6.40;43.60;;;;;;5045687;28;20574;-75
2023/03/27 05:23:27;;;;;;;2.50;1.30;;;6.10;43.80;;;;;;5043871;28;20208;-76
2023/03/27 05:25:55;;;;;;;2.47;1.20;;;6.10;45.50;;;;;;5032381;28;20748;-75
2023/03/27 05:28:21;;;;;;;2.40;1.10;;;6.20;42.30;;;;;;5051405;28;20176;-76
2023/03/27 05:30:48;;;;;;;2.50;1.20;;;5.50;45.70;;;;;;5051787;28;20219;-74
2023/03/27 05:33:15;;;;;;;2.50;1.23;;;5.00;48.80;;;;;;5044366;28;20164;-76
2023/03/27 05:35:41;;;;;;;2.50;1.17;;;5.10;47.70;;;;;;5032262;28;20470;-76
2023/03/27 05:38:07;;;;;;;2.42;1.10;;;5.00;47.00;;;;;;5041487;28;20187;-76
2023/03/27 05:40:33;;;;;;;2.50;1.30;;;5.10;46.40;;;;;;5044056;28;20196;-77
2023/03/27 05:43:00;;;;;;;2.60;1.20;;;4.70;47.60;;;;;;5053335;28;20208;-77
2023/03/27 05:47:58;;;;;;;2.35;1.20;;;4.40;48.90;;;;;;4990101;28;20202;-68
2023/03/27 05:50:32;;;;;;;2.45;1.20;;;4.50;47.20;;;;;;5001030;28;20186;-68
2023/03/27 05:53:09;;;;;;;2.42;1.20;;;4.40;48.20;;;;;;5001295;28;20176;-69
2023/03/27 05:55:37;;;;;;;2.40;1.20;;;4.70;47.10;;;;;;4990137;28;20181;-69
2023/03/27 05:58:04;;;;;;;2.40;1.10;;;4.70;46.90;;;;;;4983678;28;20256;-68
2023/03/27 06:00:32;;;;;;;2.38;1.10;;;4.90;47.20;;;;;;4995209;28;20190;-69
2023/03/27 06:03:00;;;;;;;2.47;1.20;;;4.80;45.10;;;;;;4999073;28;20177;-69
2023/03/27 06:05:28;;;;;;;2.40;1.17;;;5.30;45.10;;;;;;4992728;28;20574;-69
2023/03/27 06:07:57;;;;;;;2.30;1.10;;;5.50;45.20;;;;;;4983902;28;20194;-69
2023/03/27 06:10:24;;;;;;;2.40;1.15;;;6.00;42.10;;;;;;4990043;28;20186;-71
2023/03/27 06:13:01;;;;;;;3.17;1.83;;;5.70;42.30;;;;;;4994525;28;20273;-69
2023/03/27 06:15:27;;;;;;;2.50;1.30;;;5.50;42.40;;;;;;5004480;28;20260;-71
2023/03/27 06:17:53;;;;;;;2.50;1.20;;;5.50;42.80;;;;;;4994647;28;20186;-71
2023/03/27 06:20:20;;;;;;;2.33;1.10;;;5.40;42.30;;;;;;4989779;28;20236;-69
2023/03/27 06:22:58;;;;;;;2.60;1.30;;;5.20;42.60;;;;;;4984885;28;20534;-70
2023/03/27 06:25:25;;;;;;;2.40;1.20;;;4.70;44.00;;;;;;5000796;28;20684;-69
2023/03/27 06:27:52;;;;;;;2.40;1.10;;;4.40;44.00;;;;;;4990051;28;20213;-69
2023/03/27 06:30:21;;;;;;;2.40;1.15;;;4.60;44.00;;;;;;4984260;28;20217;-69
2023/03/27 06:32:50;;;;;;;2.50;1.20;;;5.00;43.60;;;;;;4991290;28;20178;-69
2023/03/27 06:35:17;;;;;;;2.50;1.20;;;4.70;45.00;;;;;;4992071;28;20177;-69
2023/03/27 06:37:45;;;;;;;2.55;1.30;;;4.90;45.20;;;;;;4998462;28;20284;-69
2023/03/27 06:40:22;;;;;;;2.40;1.20;;;4.80;44.20;;;;;;4979002;28;20666;-69
2023/03/27 06:42:58;;;;;;;2.40;1.20;;;4.80;45.60;;;;;;4985423;28;20166;-69
2023/03/27 06:45:27;;;;;;;2.40;1.20;;;4.90;44.30;;;;;;4991381;28;20240;-71
2023/03/27 06:47:55;;;;;;;2.40;1.20;;;4.70;44.50;;;;;;4994353;28;20619;-74
2023/03/27 06:50:21;;;;;;;2.40;1.10;;;4.70;45.60;;;;;;4996341;28;20185;-72
2023/03/27 06:52:47;;;;;;;2.50;1.20;;;4.80;45.10;;;;;;4998586;28;20578;-72
2023/03/27 06:55:14;;;;;;;2.50;1.20;;;4.90;45.00;;;;;;4983519;28;20239;-72
2023/03/27 06:57:45;;;;;;;2.50;1.20;;;4.80;43.30;;;;;;5006912;28;20839;-73
2023/03/27 07:00:13;;;;;;;2.40;1.10;;;4.50;43.70;;;;;;4991172;28;20188;-73
2023/03/27 07:02:39;;;;;;;2.50;1.30;;;4.40;44.70;;;;;;4995068;28;20220;-73
2023/03/27 07:05:07;;;;;;;2.40;1.20;;;4.40;44.70;;;;;;4985461;28;20218;-70
2023/03/27 07:07:33;;;;;;;2.40;1.10;;;4.70;42.80;;;;;;4986957;28;20522;-69
2023/03/27 07:09:59;;;;;;;2.30;1.10;;;4.60;43.30;;;;;;4991731;28;20649;-70
2023/03/27 07:12:25;;;;;;;2.70;1.40;;;4.40;43.60;;;;;;4992524;28;20186;-69
2023/03/27 07:14:50;;;;;;;2.60;1.30;;;4.50;43.40;;;;;;4992182;28;20181;-70
2023/03/27 07:17:16;;;;;;;2.47;1.10;;;4.50;43.30;;;;;;4992029;28;20676;-69
2023/03/27 07:19:42;;;;;;;2.50;1.20;;;4.70;42.90;;;;;;4991004;28;20224;-70
2023/03/27 07:22:07;;;;;;;2.40;1.20;;;4.50;42.80;;;;;;4979466;28;20565;-69
2023/03/27 07:24:33;;;;;;;2.40;1.10;;;4.90;41.70;;;;;;4993720;28;20186;-70
2023/03/27 07:26:59;;;;;;;2.40;1.10;;;5.00;41.70;;;;;;4979164;28;20619;-70
2023/03/27 07:29:25;;;;;;;2.40;1.10;;;5.40;41.70;;;;;;4996869;28;20261;-69
2023/03/27 07:31:51;;;;;;;2.40;1.10;;;5.70;39.50;;;;;;4979497;28;20190;-70
2023/03/27 07:34:17;;;;;;;2.40;1.10;;;5.50;40.00;;;;;;4983981;28;20899;-70
2023/03/27 07:36:43;;;;;;;2.40;1.10;;;5.80;39.50;;;;;;4992738;28;20233;-70
2023/03/27 07:39:11;;;;;;;2.40;1.10;;;5.70;38.20;;;;;;4992857;28;20514;-70
2023/03/27 07:41:37;;;;;;;2.50;1.13;;;5.10;40.00;;;;;;4992430;28;20184;-69
2023/03/27 07:44:03;;;;;;;2.30;1.10;;;5.10;40.70;;;;;;4990457;28;20277;-70
2023/03/27 07:46:29;;;;;;;2.40;1.10;;;6.20;43.50;;;;;;4983848;28;20217;-70
2023/03/27 07:48:55;;;;;;;2.42;1.20;;;5.20;39.70;;;;;;4992192;28;20173;-70
2023/03/27 07:51:22;;;;;;;2.40;1.10;;;5.80;38.50;;;;;;4992131;28;20197;-70
2023/03/27 07:53:52;;;;;;;2.90;1.50;;;6.20;35.90;;;;;;4990943;28;20178;-71
2023/03/27 07:56:19;;;;;;;2.30;1.10;;;5.90;36.80;;;;;;4989498;28;20293;-69
2023/03/27 07:58:45;;;;;;;2.40;1.10;;;5.60;38.10;;;;;;4974505;28;20274;-72
2023/03/27 08:01:12;;;;;;;2.30;1.10;;;5.40;39.00;;;;;;4992362;28;20178;-69
2023/03/27 08:03:37;;;;;;;2.50;1.30;;;5.40;38.60;;;;;;4991376;28;20210;-70
2023/03/27 08:06:05;;;;;;;2.40;1.13;;;5.30;38.40;;;;;;4986645;28;20244;-70
2023/03/27 08:08:31;;;;;;;2.20;1.10;;;5.00;38.20;;;;;;4990820;28;20194;-70
2023/03/27 08:10:58;;;;;;;2.30;1.20;;;5.10;38.20;;;;;;4992030;28;20217;-69
2023/03/27 08:13:24;;;;;;;2.40;1.10;;;5.80;37.80;;;;;;4991493;28;20185;-70
2023/03/27 08:15:51;;;;;;;2.30;1.10;;;5.70;36.80;;;;;;4974279;28;20579;-72
2023/03/27 08:18:17;;;;;;;2.58;1.30;;;5.40;37.80;;;;;;4989524;28;20869;-72
2023/03/27 08:20:44;;;;;;;2.40;1.20;;;5.40;37.50;;;;;;4990840;28;20265;-70
2023/03/27 08:23:10;;;;;;;2.50;1.30;;;5.20;36.90;;;;;;4991498;28;20261;-69
2023/03/27 08:25:36;;;;;;;2.33;1.10;;;4.90;37.20;;;;;;4973871;28;20210;-68
2023/03/27 08:28:01;;;;;;;2.30;1.10;;;5.00;37.30;;;;;;4991538;28;20413;-68
2023/03/27 08:30:27;;;;;;;2.40;1.20;;;4.90;38.70;;;;;;4990897;28;20186;-69
2023/03/27 08:32:53;;;;;;;2.30;1.20;;;5.30;37.10;;;;;;4988460;28;20522;-68
2023/03/27 08:35:19;;;;;;;2.30;1.10;;;5.40;36.00;;;;;;4982927;28;20269;-73
2023/03/27 08:37:45;;;;;;;4.15;1.45;;;5.80;34.70;;;;;;4995015;28;20197;-72
2023/03/27 08:40:24;;;;;;;2.30;1.10;;;5.60;36.20;;;;;;4994946;28;20181;-71
2023/03/27 08:42:54;;;;;;;2.40;1.20;;;6.40;34.40;;;;;;4994253;28;20213;-69
2023/03/27 08:45:32;;;;;;;2.30;1.13;;;5.90;34.60;;;;;;4985638;28;20207;-69
2023/03/27 08:48:06;;;;;;;2.30;1.20;;;6.10;34.30;;;;;;4991826;28;20181;-69
2023/03/27 08:50:36;;;;;;;2.25;1.10;;;6.80;30.80;;;;;;4986166;28;20192;-70
2023/03/27 08:53:06;;;;;;;2.30;1.25;;;7.30;30.00;;;;;;5004831;28;20182;-69
2023/03/27 08:55:43;;;;;;;2.30;1.30;;;7.00;30.70;;;;;;4998072;28;20198;-73
2023/03/27 08:58:20;;;;;;;2.25;1.25;;;6.90;31.90;;;;;;4993946;28;20684;-69
2023/03/27 09:00:59;;;;;;;2.17;1.15;;;7.10;32.10;;;;;;4990606;28;20223;-71
2023/03/27 09:03:37;;;;;;;2.10;1.10;;;7.50;30.60;;;;;;5002555;28;20185;-71
2023/03/27 09:06:12;;;;;;;2.20;1.25;;;7.10;30.80;;;;;;5001125;28;20361;-70
2023/03/27 09:08:52;;;;;;;2.10;1.10;;;7.30;31.00;;;;;;4995507;28;20183;-72
2023/03/27 09:11:40;;;;;;;2.00;1.10;;;7.50;29.80;;;;;;4993132;28;20172;-70
2023/03/27 09:14:25;;;;;;;2.00;1.10;;;8.20;29.80;;;;;;4999221;28;20812;-69
2023/03/27 09:16:55;;;;;;;2.40;1.60;;;7.70;28.20;;;;;;4993188;28;20245;-69
2023/03/27 09:19:56;;;;;;;2.03;1.10;;;7.10;29.90;;;;;;4991307;28;20198;-69
2023/03/27 09:22:26;;;;;;;2.00;1.10;;;7.10;29.70;;;;;;4992293;28;21170;-70
2023/03/27 09:24:56;;;;;;;2.10;1.20;;;7.80;29.70;;;;;;4988036;28;20341;-69
2023/03/27 09:27:27;;;;;;;2.00;1.10;;;7.30;27.30;;;;;;4994639;28;20218;-69
2023/03/27 09:30:19;;;;;;;2.00;1.10;;;7.40;29.80;;;;;;5000402;28;20268;-68
2023/03/27 09:32:48;;;;;;;2.25;1.40;;;8.70;26.90;;;;;;5001004;28;20177;-70
2023/03/27 09:35:16;;;;;;;2.35;1.50;;;8.60;27.20;;;;;;5005208;28;20301;-72
2023/03/27 09:37:43;;;;;;;2.10;1.30;;;8.90;26.00;;;;;;4994016;28;20283;-72
2023/03/27 09:40:24;;;;;;;2.00;1.20;;;9.70;26.90;;;;;;4998505;28;20184;-69
2023/03/27 09:42:52;;;;;;;1.90;1.10;;;10.10;22.30;;;;;;4994044;28;20162;-69
2023/03/27 09:45:19;;;;;;;2.00;1.20;;;10.20;25.70;;;;;;4991826;28;20237;-70
2023/03/27 09:47:51;;;;;;;1.90;1.20;;;10.70;22.60;;;;;;4984467;28;20213;-69
2023/03/27 09:50:31;;;;;;;2.00;1.23;;;10.50;22.60;;;;;;4999627;28;20437;-68
2023/03/27 09:53:11;;;;;;;1.90;1.20;;;9.60;24.30;;;;;;4999616;28;21019;-68
2023/03/27 09:55:49;;;;;;;1.70;1.00;;;9.50;27.50;;;;;;4994579;28;20436;-69
2023/03/27 09:58:21;;;;;;;2.00;1.40;;;10.50;24.00;;;;;;5003717;28;20506;-68
2023/03/27 10:00:47;;;;;;;2.20;1.50;;;10.00;24.30;;;;;;5000080;28;20441;-75
2023/03/27 10:03:16;;;;;;;1.80;1.10;;;9.00;26.60;;;;;;4986487;28;20659;-68
2023/03/27 10:05:42;;;;;;;1.80;1.10;;;10.00;26.20;;;;;;4971695;28;20283;-69
2023/03/27 10:08:24;;;;;;;1.80;1.17;;;10.60;24.50;;;;;;4987024;28;20420;-69
2023/03/27 10:10:58;;;;;;;1.90;1.30;;;11.20;23.60;;;;;;4997232;28;20484;-74
2023/03/27 10:13:28;;;;;;;1.90;1.20;;;10.40;23.10;;;;;;5000489;28;20483;-69
2023/03/27 10:16:07;;;;;;;1.90;1.30;;;9.40;22.80;;;;;;5012399;28;20450;-68
2023/03/27 10:18:41;;;;;;;1.77;1.10;;;10.10;21.70;;;;;;5012800;28;20479;-69
2023/03/27 10:21:10;;;;;;;1.73;1.10;;;9.70;25.20;;;;;;4991459;28;20459;-70
2023/03/27 10:23:45;;;;;;;1.70;1.10;;;10.50;23.10;;;;;;4991551;28;20434;-69
2023/03/27 10:26:15;;;;;;;1.80;1.20;;;11.00;21.50;;;;;;4996370;28;20483;-68
2023/03/27 10:28:45;;;;;;;1.80;1.20;;;10.50;19.20;;;;;;5000574;28;20405;-69
2023/03/27 10:31:24;;;;;;;1.80;1.10;;;10.90;21.70;;;;;;4998754;28;20689;-68
2023/03/27 10:33:50;;;;;;;1.80;1.10;;;11.30;19.80;;;;;;4987203;28;20428;-71
2023/03/27 10:36:17;;;;;;;1.90;1.20;;;11.00;21.90;;;;;;4990433;28;20458;-72
2023/03/27 10:38:51;;;;;;;1.90;1.20;;;11.40;18.90;;;;;;5001022;28;20256;-69
2023/03/27 10:41:19;;;;;;;1.90;1.20;;;10.10;22.90;;;;;;5003508;28;20797;-73
2023/03/27 10:43:47;;;;;;;1.90;1.20;;;10.40;18.00;;;;;;4991662;28;20448;-72
2023/03/27 10:46:16;;;;;;;1.93;1.20;;;9.30;18.70;;;;;;4983554;28;21168;-69
2023/03/27 10:48:51;;;;;;;1.90;1.20;;;9.10;20.00;;;;;;4998406;28;20792;-69
2023/03/27 10:51:40;;;;;;;1.90;1.20;;;10.10;20.40;;;;;;4998076;28;20435;-72
2023/03/27 10:54:14;;;;;;;1.90;1.20;;;10.00;21.60;;;;;;4994781;28;20483;-73
2023/03/27 10:57:23;;;;;;;1.90;1.20;;;10.60;18.00;;;;;;5002592;28;20424;-68
2023/03/27 10:59:59;;;;;;;2.00;1.30;;;11.10;19.60;;;;;;4936866;28;20446;-69
2023/03/27 11:02:29;;;;;;;2.00;1.40;;;12.20;19.90;;;;;;4931800;29;20439;-67
2023/03/27 11:05:01;;;;;;;1.80;1.10;;;11.10;17.90;;;;;;4939728;29;20424;-70
2023/03/27 11:07:36;;;;;;;2.00;1.30;;;10.70;18.30;;;;;;4938184;28;20454;-71
2023/03/27 11:10:30;;;;;;;1.80;1.10;;;9.50;19.60;;;;;;4943074;29;20439;-68
2023/03/27 11:13:04;;;;;;;2.00;1.20;;;9.10;20.80;;;;;;4931517;29;20914;-69
2023/03/27 11:15:41;;;;;;;1.90;1.10;;;8.70;21.30;;;;;;4949503;28;20773;-70
2023/03/27 11:18:16;;;;;;;1.90;1.10;;;8.40;21.50;;;;;;4940410;29;20449;-68
2023/03/27 11:20:50;;;;;;;1.88;1.08;;;8.40;21.90;;;;;;4951160;29;20419;-68
2023/03/27 11:23:27;;;;;;;2.00;1.20;;;8.00;21.40;;;;;;4951108;29;20193;-68
2023/03/27 11:25:53;;;;;;;1.80;1.10;;;8.60;21.20;;;;;;4934928;29;20529;-69
2023/03/27 11:28:31;;;;;;;1.90;1.20;;;9.40;20.50;;;;;;4934452;29;20431;-67
2023/03/27 11:31:24;;;;;;;2.00;1.30;;;11.90;19.00;;;;;;4979079;28;20512;-71
2023/03/27 11:34:24;;;;;;;1.93;1.20;;;13.30;14.40;;;;;;4995872;28;20446;-72
2023/03/27 11:37:15;;;;;;;1.90;1.20;;;11.20;17.50;;;;;;4997912;28;20489;-68
2023/03/27 11:39:45;;;;;;;1.80;1.20;;;9.60;19.60;;;;;;4967710;28;20433;-68
2023/03/27 11:42:19;;;;;;;1.90;1.10;;;9.50;19.80;;;;;;4996275;28;21163;-68
2023/03/27 11:44:46;;;;;;;1.90;1.13;;;9.70;19.70;;;;;;4994840;28;20456;-68
2023/03/27 11:47:51;;;;;;;1.80;1.10;;;10.30;16.60;;;;;;5002805;28;20482;-69
2023/03/27 11:50:36;;;;;;;2.07;1.30;;;12.10;17.50;;;;;;4990986;28;20428;-68
2023/03/27 11:53:20;;;;;;;2.60;1.60;;;13.00;13.20;;;;;;4986686;28;20405;-69
2023/03/27 11:56:05;;;;;;;2.10;1.40;;;13.60;13.20;;;;;;4996059;28;20528;-69
2023/03/27 11:58:37;;;;;;;2.10;1.30;;;14.40;16.30;;;;;;5032782;22;20504;-72
2023/03/27 12:01:16;;;;;;;2.00;1.30;;;14.80;12.40;;;;;;5008995;28;20436;-74
2023/03/27 12:04:09;;;;;;;1.93;1.30;;;11.70;15.10;;;;;;5007664;28;20432;-70
2023/03/27 12:06:50;;;;;;;2.00;1.30;;;11.40;15.60;;;;;;5025017;28;20837;-72
2023/03/27 12:09:34;;;;;;;1.97;1.30;;;10.30;17.30;;;;;;5030990;28;20434;-77
2023/03/27 12:12:09;;;;;;;2.53;1.60;;;12.20;15.90;;;;;;5011010;28;20455;-72
2023/03/27 12:14:59;;;;;;;1.90;1.30;;;13.20;14.40;;;;;;5012851;28;20436;-72
2023/03/27 12:17:48;;;;;;;2.00;1.30;;;13.40;13.40;;;;;;5013149;28;20449;-73
2023/03/27 12:20:22;;;;;;;2.13;1.27;;;13.20;12.90;;;;;;5027663;28;20812;-71
2023/03/27 12:22:55;;;;;;;2.30;1.27;;;12.80;13.10;;;;;;5033375;28;20416;-71
2023/03/27 12:25:39;;;;;;;2.50;1.40;;;13.40;14.20;;;;;;5034614;28;20409;-72
2023/03/27 12:28:24;;;;;;;2.10;1.20;;;12.80;12.70;;;;;;5020246;28;20495;-71
2023/03/27 12:31:04;;;;;;;2.00;1.20;;;12.50;14.70;;;;;;5007758;28;20412;-73
2023/03/27 12:33:45;;;;;;;1.90;1.10;;;11.80;15.10;;;;;;5014656;28;20397;-72
2023/03/27 12:36:18;;;;;;;2.00;1.27;;;11.60;16.00;;;;;;5014679;28;20404;-71
2023/03/27 12:38:44;;;;;;;2.10;1.30;;;10.90;15.10;;;;;;5013231;28;20465;-72
2023/03/27 12:41:25;;;;;;;1.90;1.20;;;11.50;14.90;;;;;;5014436;28;20488;-71
2023/03/27 12:43:59;;;;;;;2.00;1.20;;;13.20;13.40;;;;;;4994742;28;20417;-72
2023/03/27 12:46:27;;;;;;;2.33;1.20;;;14.40;14.30;;;;;;4995269;28;20510;-72
2023/03/27 12:48:58;;;;;;;2.60;1.40;;;14.70;10.90;;;;;;5002674;28;20534;-72
2023/03/27 12:51:52;;;;;;;2.50;1.20;;;14.10;12.10;;;;;;5014083;28;20435;-71
2023/03/27 12:54:37;;;;;;;2.50;1.30;;;13.60;13.30;;;;;;5014264;28;20764;-72
2023/03/27 12:57:17;;;;;;;2.70;1.30;;;14.60;12.70;;;;;;5014431;28;20415;-72
2023/03/27 12:59:57;;;;;;;3.07;1.50;;;15.70;11.50;;;;;;5013103;28;20461;-72
2023/03/27 13:02:51;;;;;;;3.13;1.37;;;16.90;10.00;;;;;;5011733;28;20421;-71
2023/03/27 13:05:43;;;;;;;3.00;1.20;;;16.60;8.90;;;;;;5014507;28;20474;-71
2023/03/27 13:08:36;;;;;;;3.40;1.43;;;13.10;11.50;;;;;;5014334;28;20429;-71
2023/03/27 13:11:11;;;;;;;2.97;1.30;;;12.70;11.80;;;;;;5013056;28;20427;-72
2023/03/27 13:13:58;;;;;;;2.80;1.20;;;13.20;12.10;;;;;;5014103;28;20415;-71
2023/03/27 13:16:24;;;;;;;2.70;1.30;;;13.00;13.00;;;;;;5013860;28;20415;-71
2023/03/27 13:19:20;;;;;;;2.53;1.30;;;12.00;14.20;;;;;;5012774;28;20497;-71
2023/03/27 13:22:09;;;;;;;2.23;1.20;;;10.60;15.00;;;;;;4994373;28;20172;-72
2023/03/27 13:25:16;;;;;;;2.10;1.10;;;9.30;18.20;;;;;;4993957;28;20496;-72